Time;durP1;ratioP1;P1;durP2;ratioP2;P2;SDS_P1;SDS_P2;PMS_P1;PMS_P2;Temp;Humidity;BMP_temperature;BMP_pressure;BME280_temperature;BME280_humidity;BME280_pressure;Samples;Min_cycle;Max_cycle;Signal;HPM_P1;HPM_P2
2021/03/09 00:00:30;;;;;;;12.47;9.07;;;1.50;99.90;;;;;;5076239;28;20209;-66
2021/03/09 00:02:57;;;;;;;14.27;8.50;;;1.50;99.90;;;;;;5075930;28;20212;-65
2021/03/09 00:05:24;;;;;;;13.53;9.10;;;1.50;99.90;;;;;;5076235;28;20227;-67
2021/03/09 00:07:50;;;;;;;12.30;9.40;;;1.50;99.90;;;;;;5076320;28;20260;-65
2021/03/09 00:10:16;;;;;;;13.50;9.37;;;1.60;99.90;;;;;;5076625;28;20607;-68
2021/03/09 00:12:42;;;;;;;12.63;9.00;;;1.50;99.90;;;;;;5076441;28;20209;-66
2021/03/09 00:15:10;;;;;;;12.53;9.37;;;1.50;99.90;;;;;;5075952;28;20228;-66
2021/03/09 00:17:36;;;;;;;13.37;9.13;;;1.40;99.90;;;;;;5075767;28;20228;-67
2021/03/09 00:20:05;;;;;;;14.53;9.50;;;1.40;99.90;;;;;;5077593;28;20243;-65
2021/03/09 00:22:31;;;;;;;13.87;9.13;;;1.30;99.90;;;;;;5075617;28;20270;-65
2021/03/09 00:24:58;;;;;;;11.70;8.87;;;1.10;99.90;;;;;;5075474;28;20197;-65
2021/03/09 00:27:25;;;;;;;14.50;9.00;;;1.10;99.90;;;;;;5074837;28;20611;-63
2021/03/09 00:29:51;;;;;;;13.97;9.43;;;1.00;99.90;;;;;;5074858;28;20201;-67
2021/03/09 00:32:17;;;;;;;12.77;9.47;;;1.00;99.90;;;;;;5074804;28;20267;-68
2021/03/09 00:34:43;;;;;;;13.23;9.90;;;1.00;99.90;;;;;;5074489;28;20282;-65
2021/03/09 00:37:10;;;;;;;12.97;9.40;;;1.10;99.90;;;;;;5072855;28;20653;-65
2021/03/09 00:39:37;;;;;;;14.37;10.07;;;1.00;99.90;;;;;;5074724;28;20201;-66
2021/03/09 00:42:03;;;;;;;12.00;9.70;;;1.00;99.90;;;;;;5074060;28;20669;-65
2021/03/09 00:44:29;;;;;;;15.33;9.30;;;0.90;99.90;;;;;;5074273;28;20626;-65
2021/03/09 00:46:56;;;;;;;13.93;10.13;;;0.80;99.90;;;;;;5074560;28;20221;-66
2021/03/09 00:49:22;;;;;;;15.07;9.90;;;0.80;99.90;;;;;;5074856;28;20213;-65
2021/03/09 00:51:48;;;;;;;15.67;9.77;;;0.80;99.90;;;;;;5075803;28;20266;-65
2021/03/09 00:54:15;;;;;;;12.17;9.43;;;0.70;99.90;;;;;;5074899;28;20241;-65
2021/03/09 00:56:41;;;;;;;14.97;9.17;;;0.70;99.90;;;;;;5074061;28;20232;-65
2021/03/09 00:59:08;;;;;;;15.70;10.17;;;0.70;99.90;;;;;;5074528;28;20213;-66
2021/03/09 01:01:34;;;;;;;16.03;10.17;;;0.60;99.90;;;;;;5073812;28;20575;-67
2021/03/09 01:04:01;;;;;;;16.60;11.10;;;0.40;99.90;;;;;;5073870;28;20665;-68
2021/03/09 01:06:27;;;;;;;16.50;9.60;;;0.40;99.90;;;;;;5073792;28;20220;-67
2021/03/09 01:08:53;;;;;;;14.77;9.80;;;0.40;99.90;;;;;;5075008;28;20204;-67
2021/03/09 01:11:20;;;;;;;19.80;10.40;;;0.30;99.90;;;;;;5075069;28;20681;-67
2021/03/09 01:13:46;;;;;;;18.40;10.67;;;0.40;99.90;;;;;;5075385;28;20275;-67
2021/03/09 01:16:13;;;;;;;16.27;10.63;;;0.30;99.90;;;;;;5075040;28;20279;-68
2021/03/09 01:18:39;;;;;;;16.40;10.70;;;0.40;99.90;;;;;;5075565;28;20209;-68
2021/03/09 01:21:06;;;;;;;16.37;10.47;;;0.40;99.90;;;;;;5075771;28;20212;-68
2021/03/09 01:23:32;;;;;;;15.90;11.10;;;0.40;99.90;;;;;;5075266;28;20591;-66
2021/03/09 01:25:58;;;;;;;15.27;11.10;;;0.40;99.90;;;;;;5074553;28;20232;-65
2021/03/09 01:28:25;;;;;;;13.87;10.33;;;0.50;99.90;;;;;;5074845;28;20205;-67
2021/03/09 01:30:52;;;;;;;14.77;10.03;;;0.50;99.90;;;;;;5075412;28;20201;-68
2021/03/09 01:33:18;;;;;;;17.20;10.33;;;0.40;99.90;;;;;;5074716;28;20201;-68
2021/03/09 01:35:44;;;;;;;17.03;11.47;;;0.40;99.90;;;;;;5072617;28;20213;-67
2021/03/09 01:38:10;;;;;;;15.23;10.30;;;0.40;99.90;;;;;;5072538;28;20201;-67
2021/03/09 01:40:37;;;;;;;16.27;10.33;;;0.40;99.90;;;;;;5072332;28;20680;-67
2021/03/09 01:43:04;;;;;;;17.87;10.60;;;0.40;99.90;;;;;;5072435;28;20232;-67
2021/03/09 01:45:32;;;;;;;13.23;9.77;;;0.30;99.90;;;;;;5072582;28;20212;-67
2021/03/09 01:48:01;;;;;;;14.20;9.63;;;0.20;99.90;;;;;;5071802;28;20232;-67
2021/03/09 01:50:29;;;;;;;13.60;10.00;;;0.20;99.90;;;;;;5072917;28;20413;-67
2021/03/09 01:52:55;;;;;;;16.10;10.20;;;0.20;99.90;;;;;;5072632;28;20209;-68
2021/03/09 01:55:22;;;;;;;16.20;10.27;;;0.10;99.90;;;;;;5072342;28;20618;-68
2021/03/09 01:57:49;;;;;;;14.80;10.33;;;0.10;99.90;;;;;;5071777;28;20232;-67
2021/03/09 02:00:16;;;;;;;16.97;10.70;;;0.10;99.90;;;;;;5072532;28;20216;-67
2021/03/09 02:02:43;;;;;;;16.10;10.57;;;0.10;99.90;;;;;;5072438;28;20220;-67
2021/03/09 02:05:12;;;;;;;14.90;10.23;;;0.10;99.90;;;;;;5072099;28;20608;-68
2021/03/09 02:07:39;;;;;;;16.40;10.50;;;0.20;99.90;;;;;;5071793;28;20267;-67
2021/03/09 02:10:09;;;;;;;15.13;10.27;;;0.20;99.90;;;;;;5072013;28;20209;-67
2021/03/09 02:12:46;;;;;;;15.07;10.53;;;0.10;99.90;;;;;;5071778;28;20569;-67
2021/03/09 02:15:26;;;;;;;15.20;10.57;;;0.20;99.90;;;;;;5072208;28;20228;-67
2021/03/09 02:17:58;;;;;;;15.73;10.87;;;0.20;99.90;;;;;;5071775;28;20228;-67
2021/03/09 02:20:50;;;;;;;15.40;10.77;;;0.10;99.90;;;;;;5071925;28;20210;-67
2021/03/09 02:23:50;;;;;;;13.13;9.90;;;0.00;99.90;;;;;;5052311;28;20572;-67
2021/03/09 02:26:32;;;;;;;16.20;10.20;;;-0.10;99.90;;;;;;5071627;28;20224;-67
2021/03/09 02:29:09;;;;;;;15.07;10.87;;;-0.20;99.90;;;;;;5071606;28;20232;-68
2021/03/09 02:31:39;;;;;;;14.50;9.90;;;-0.30;99.90;;;;;;5071556;28;20265;-68
2021/03/09 02:34:10;;;;;;;14.23;9.70;;;-0.30;99.90;;;;;;5071523;28;20544;-67
2021/03/09 02:36:38;;;;;;;16.47;11.10;;;-0.20;99.90;;;;;;5071723;28;20228;-67
2021/03/09 02:39:07;;;;;;;15.33;10.53;;;-0.20;99.90;;;;;;5071868;28;20201;-67
2021/03/09 02:41:39;;;;;;;18.20;10.73;;;-0.20;99.90;;;;;;5071720;28;20209;-67
2021/03/09 02:44:08;;;;;;;16.93;10.60;;;-0.20;99.90;;;;;;5071338;28;20204;-67
2021/03/09 02:46:36;;;;;;;16.57;10.60;;;-0.30;99.90;;;;;;5071494;28;20229;-68
2021/03/09 02:49:05;;;;;;;16.50;10.47;;;-0.30;99.90;;;;;;5071669;28;20212;-67
2021/03/09 02:51:34;;;;;;;15.27;10.30;;;-0.30;99.90;;;;;;5071198;28;20249;-67
2021/03/09 02:54:02;;;;;;;17.00;10.30;;;-0.20;99.90;;;;;;5070996;28;20224;-66
2021/03/09 02:56:29;;;;;;;16.07;9.93;;;-0.20;99.90;;;;;;5071459;28;20260;-63
2021/03/09 02:58:57;;;;;;;14.70;10.10;;;-0.30;99.90;;;;;;5071176;28;20273;-66
2021/03/09 03:01:26;;;;;;;15.50;10.30;;;-0.30;99.90;;;;;;5071088;28;20208;-66
2021/03/09 03:03:54;;;;;;;14.97;10.33;;;-0.30;99.90;;;;;;5070837;28;20215;-66
2021/03/09 03:06:22;;;;;;;14.93;10.37;;;-0.30;99.90;;;;;;5071102;28;20225;-66
2021/03/09 03:08:49;;;;;;;15.23;10.40;;;-0.40;99.90;;;;;;5071098;28;20204;-66
2021/03/09 03:11:18;;;;;;;16.73;10.57;;;-0.40;99.90;;;;;;5071307;28;20209;-66
2021/03/09 03:13:45;;;;;;;15.93;9.50;;;-0.40;99.90;;;;;;5071231;28;20208;-65
2021/03/09 03:16:13;;;;;;;16.07;10.40;;;-0.40;99.90;;;;;;5071496;28;20240;-65
2021/03/09 03:18:42;;;;;;;15.20;9.83;;;-0.40;99.90;;;;;;5071369;28;20201;-65
2021/03/09 03:21:10;;;;;;;15.87;10.70;;;-0.50;99.90;;;;;;5070857;28;20250;-66
2021/03/09 03:23:38;;;;;;;17.73;10.13;;;-0.50;99.90;;;;;;5070820;28;20205;-65
2021/03/09 03:26:06;;;;;;;15.50;9.97;;;-0.50;99.90;;;;;;5071153;28;20231;-65
2021/03/09 03:28:33;;;;;;;15.33;9.93;;;-0.40;99.90;;;;;;5071059;28;20604;-64
2021/03/09 03:31:01;;;;;;;15.67;10.90;;;-0.40;99.90;;;;;;5070743;28;20213;-67
2021/03/09 03:33:28;;;;;;;12.37;9.40;;;-0.40;99.90;;;;;;5070828;28;20212;-65
2021/03/09 03:35:54;;;;;;;14.07;9.70;;;-0.40;99.90;;;;;;5070717;28;20236;-66
2021/03/09 03:38:22;;;;;;;15.47;9.47;;;-0.40;99.90;;;;;;5071048;28;20594;-65
2021/03/09 03:40:48;;;;;;;14.27;10.37;;;-0.50;99.90;;;;;;5070858;28;20205;-66
2021/03/09 03:43:14;;;;;;;16.30;10.67;;;-0.60;99.90;;;;;;5070593;28;20684;-66
2021/03/09 03:45:40;;;;;;;13.87;10.00;;;-0.60;99.90;;;;;;5070747;28;20201;-65
2021/03/09 03:48:08;;;;;;;14.53;10.37;;;-0.60;99.90;;;;;;5070497;28;20215;-66
2021/03/09 03:50:34;;;;;;;13.87;9.40;;;-0.70;99.90;;;;;;5070933;28;20209;-66
2021/03/09 03:53:07;;;;;;;16.47;10.17;;;-0.80;99.90;;;;;;5071084;28;20204;-66
2021/03/09 03:55:50;;;;;;;16.20;10.20;;;-0.80;99.90;;;;;;5071020;28;20240;-66
2021/03/09 03:58:25;;;;;;;18.73;10.57;;;-0.80;99.90;;;;;;5071002;28;20205;-66
2021/03/09 04:00:52;;;;;;;15.43;10.27;;;-0.80;99.90;;;;;;5070722;28;20203;-65
2021/03/09 04:03:19;;;;;;;16.37;9.67;;;-0.80;99.90;;;;;;5070640;28;20644;-66
2021/03/09 04:05:49;;;;;;;13.77;9.83;;;-0.80;99.90;;;;;;5070791;28;20201;-66
2021/03/09 04:08:16;;;;;;;13.80;10.20;;;-0.80;99.90;;;;;;5071478;28;20205;-66
2021/03/09 04:10:46;;;;;;;15.17;10.37;;;-0.80;99.90;;;;;;5071677;28;20250;-68
2021/03/09 04:13:14;;;;;;;15.90;10.13;;;-0.90;99.90;;;;;;5074269;28;20506;-66
2021/03/09 04:15:40;;;;;;;14.73;10.10;;;-1.00;99.90;;;;;;5074061;28;20705;-66
2021/03/09 04:18:07;;;;;;;14.80;9.93;;;-1.00;99.90;;;;;;5074154;28;20661;-65
2021/03/09 04:20:35;;;;;;;15.20;10.77;;;-1.10;99.90;;;;;;5074076;28;20202;-65
2021/03/09 04:23:02;;;;;;;15.67;10.43;;;-0.90;99.90;;;;;;5074002;28;20212;-65
2021/03/09 04:25:29;;;;;;;19.30;10.63;;;-0.90;99.90;;;;;;5073843;28;20201;-65
2021/03/09 04:27:57;;;;;;;14.50;10.27;;;-0.90;99.90;;;;;;5073810;28;20220;-66
2021/03/09 04:30:24;;;;;;;13.60;9.87;;;-0.80;99.90;;;;;;5073516;28;20231;-66
2021/03/09 04:32:50;;;;;;;15.93;10.50;;;-0.90;99.90;;;;;;5073930;28;20205;-66
2021/03/09 04:35:17;;;;;;;17.30;9.90;;;-1.00;99.90;;;;;;5073430;28;20233;-65
2021/03/09 04:37:44;;;;;;;15.40;10.20;;;-1.00;99.90;;;;;;5073492;28;20229;-65
2021/03/09 04:40:11;;;;;;;13.97;10.10;;;-1.10;99.90;;;;;;5073560;28;20232;-65
2021/03/09 04:42:38;;;;;;;15.27;10.63;;;-1.00;99.90;;;;;;5073293;28;20212;-65
2021/03/09 04:45:06;;;;;;;16.57;11.17;;;-1.10;99.90;;;;;;5073514;28;20205;-64
2021/03/09 04:47:34;;;;;;;15.33;10.17;;;-1.00;99.90;;;;;;5073704;28;20228;-64
2021/03/09 04:50:01;;;;;;;14.67;10.40;;;-1.00;99.90;;;;;;5073513;28;20209;-64
2021/03/09 04:52:27;;;;;;;15.43;10.23;;;-1.00;99.90;;;;;;5074270;28;20209;-65
2021/03/09 04:54:54;;;;;;;18.13;10.67;;;-0.90;99.90;;;;;;5073150;28;20734;-65
2021/03/09 04:57:28;;;;;;;14.33;10.57;;;-0.80;99.90;;;;;;5073132;28;20282;-64
2021/03/09 04:59:54;;;;;;;15.13;10.63;;;-0.80;99.90;;;;;;5073987;28;20216;-65
2021/03/09 05:02:21;;;;;;;16.43;11.27;;;-0.90;99.90;;;;;;5074350;28;20205;-64
2021/03/09 05:04:48;;;;;;;14.43;10.43;;;-0.80;99.90;;;;;;5074089;28;20197;-66
2021/03/09 05:07:14;;;;;;;15.57;10.50;;;-0.80;99.90;;;;;;5074346;28;20240;-67
2021/03/09 05:09:40;;;;;;;14.87;10.67;;;-0.80;99.90;;;;;;5075165;28;20208;-64
2021/03/09 05:12:07;;;;;;;15.97;10.67;;;-0.90;99.90;;;;;;5073839;28;20201;-64
2021/03/09 05:14:33;;;;;;;17.23;11.17;;;-0.80;99.90;;;;;;5073745;28;20560;-64
2021/03/09 05:16:59;;;;;;;16.73;11.33;;;-0.80;99.90;;;;;;5073363;28;20274;-66
2021/03/09 05:19:26;;;;;;;17.53;11.10;;;-0.80;99.90;;;;;;5073818;28;20604;-65
2021/03/09 05:21:53;;;;;;;15.93;10.77;;;-0.80;99.90;;;;;;5073660;28;20205;-65
2021/03/09 05:24:19;;;;;;;14.87;9.97;;;-0.80;99.90;;;;;;5072860;28;20572;-65
2021/03/09 05:26:45;;;;;;;19.33;11.83;;;-0.80;99.90;;;;;;5073275;28;20221;-64
2021/03/09 05:29:11;;;;;;;18.97;11.67;;;-0.70;99.90;;;;;;5073907;28;20267;-65
2021/03/09 05:31:38;;;;;;;22.27;12.43;;;-0.70;99.90;;;;;;5075237;28;20205;-65
2021/03/09 05:34:04;;;;;;;20.10;11.50;;;-0.60;99.90;;;;;;5074946;28;20224;-64
2021/03/09 05:36:33;;;;;;;18.07;11.57;;;-0.60;99.90;;;;;;5076255;28;20232;-67
2021/03/09 05:38:59;;;;;;;15.60;11.20;;;-0.50;99.90;;;;;;5075046;28;20209;-65
2021/03/09 05:41:26;;;;;;;16.70;11.87;;;-0.40;99.90;;;;;;5074253;28;20201;-65
2021/03/09 05:43:53;;;;;;;16.33;11.27;;;-0.40;99.90;;;;;;5074206;28;20205;-65
2021/03/09 05:46:19;;;;;;;15.50;11.43;;;-0.50;99.90;;;;;;5073214;28;20221;-64
2021/03/09 05:48:46;;;;;;;16.43;10.97;;;-0.50;99.90;;;;;;5073507;28;20201;-64
2021/03/09 05:51:13;;;;;;;15.33;11.00;;;-0.50;99.90;;;;;;5072905;28;20613;-65
2021/03/09 05:53:40;;;;;;;16.00;11.20;;;-0.50;99.90;;;;;;5074556;28;20212;-64
2021/03/09 05:56:07;;;;;;;15.37;10.77;;;-0.50;99.90;;;;;;5073079;28;20225;-66
2021/03/09 05:58:34;;;;;;;17.37;12.13;;;-0.40;99.90;;;;;;5074292;28;20209;-64
2021/03/09 06:01:00;;;;;;;18.63;12.73;;;-0.40;99.90;;;;;;5073225;28;20213;-64
2021/03/09 06:03:28;;;;;;;18.13;12.83;;;-0.30;99.90;;;;;;5072925;28;20220;-66
2021/03/09 06:05:55;;;;;;;18.93;12.77;;;-0.20;99.90;;;;;;5073321;28;20201;-66
2021/03/09 06:08:21;;;;;;;23.40;13.77;;;-0.10;99.90;;;;;;5073964;28;20201;-65
2021/03/09 06:10:49;;;;;;;24.10;14.27;;;0.00;99.90;;;;;;5073662;28;20208;-65
2021/03/09 06:13:33;;;;;;;18.63;12.00;;;0.10;99.90;;;;;;5073271;28;20205;-64
2021/03/09 06:15:59;;;;;;;17.00;10.83;;;0.10;99.90;;;;;;5073703;28;20642;-64
2021/03/09 06:18:26;;;;;;;17.67;11.27;;;0.20;99.90;;;;;;5072601;28;20208;-65
2021/03/09 06:21:08;;;;;;;18.77;11.40;;;0.30;99.90;;;;;;5073004;28;20235;-64
2021/03/09 06:23:35;;;;;;;16.60;10.77;;;0.40;99.90;;;;;;5073339;28;20209;-64
2021/03/09 06:26:03;;;;;;;18.63;11.73;;;0.50;99.90;;;;;;5074144;28;20225;-65
2021/03/09 06:28:30;;;;;;;15.60;11.03;;;0.60;99.90;;;;;;5074711;28;20204;-64
2021/03/09 06:30:59;;;;;;;18.53;10.77;;;0.70;99.90;;;;;;5075135;28;20209;-64
2021/03/09 06:33:27;;;;;;;16.47;11.20;;;0.80;99.90;;;;;;5074287;28;20295;-64
2021/03/09 06:35:55;;;;;;;16.57;11.33;;;0.90;99.90;;;;;;5073833;28;20252;-64
2021/03/09 06:38:23;;;;;;;18.03;11.17;;;1.00;99.90;;;;;;5074791;28;20236;-64
2021/03/09 06:41:16;;;;;;;14.27;10.50;;;1.10;99.90;;;;;;5075821;28;20244;-66
2021/03/09 06:43:43;;;;;;;17.60;11.47;;;1.30;99.90;;;;;;5073760;28;20660;-64
2021/03/09 06:46:11;;;;;;;16.80;11.70;;;1.40;99.90;;;;;;5073604;28;20256;-64
2021/03/09 06:48:39;;;;;;;18.43;11.77;;;1.50;99.90;;;;;;5074585;28;20197;-64
2021/03/09 06:51:05;;;;;;;19.83;12.20;;;1.60;99.90;;;;;;5074854;28;20208;-64
2021/03/09 06:53:32;;;;;;;19.63;12.07;;;1.80;99.90;;;;;;5074901;28;20209;-64
2021/03/09 06:55:58;;;;;;;20.53;12.93;;;1.90;99.90;;;;;;5074602;28;20286;-63
2021/03/09 06:58:30;;;;;;;21.07;12.60;;;2.10;99.90;;;;;;5076043;28;20339;-64
2021/03/09 07:01:14;;;;;;;21.27;12.73;;;2.30;99.90;;;;;;5075599;28;20294;-64
2021/03/09 07:03:41;;;;;;;20.23;12.90;;;2.40;99.90;;;;;;5072294;28;20232;-64
2021/03/09 07:06:07;;;;;;;21.53;12.77;;;2.60;99.90;;;;;;5072251;28;20231;-64
2021/03/09 07:08:33;;;;;;;18.90;12.37;;;2.80;99.90;;;;;;5072103;28;20209;-66
2021/03/09 07:11:00;;;;;;;17.43;12.73;;;3.00;99.90;;;;;;5072693;28;20213;-66
2021/03/09 07:13:28;;;;;;;19.73;12.67;;;3.30;99.90;;;;;;5072418;28;20201;-65
2021/03/09 07:15:56;;;;;;;18.50;13.17;;;3.40;99.90;;;;;;5072356;28;20276;-64
2021/03/09 07:18:24;;;;;;;19.80;13.90;;;3.40;99.90;;;;;;5072340;28;20200;-64
2021/03/09 07:20:52;;;;;;;26.87;14.53;;;3.50;99.90;;;;;;5072120;28;20242;-64
2021/03/09 07:23:20;;;;;;;24.67;14.30;;;3.60;99.90;;;;;;5072637;28;20205;-65
2021/03/09 07:25:50;;;;;;;22.43;14.93;;;3.90;99.90;;;;;;5072186;28;20201;-65
2021/03/09 07:28:18;;;;;;;21.67;13.90;;;4.10;99.90;;;;;;5072762;28;20204;-68
2021/03/09 07:30:50;;;;;;;26.47;16.33;;;4.40;99.90;;;;;;5072099;28;20209;-65
2021/03/09 07:33:17;;;;;;;21.97;15.93;;;4.70;99.90;;;;;;5072378;28;20209;-66
2021/03/09 07:35:45;;;;;;;17.97;12.43;;;4.90;99.90;;;;;;5072229;28;20225;-64
2021/03/09 07:38:13;;;;;;;16.33;12.17;;;5.00;99.90;;;;;;5072496;28;20258;-65
2021/03/09 07:40:39;;;;;;;21.33;14.30;;;5.20;99.90;;;;;;5072443;28;20212;-65
2021/03/09 07:43:06;;;;;;;25.30;16.20;;;5.50;99.90;;;;;;5072814;28;20232;-64
2021/03/09 07:45:34;;;;;;;22.13;15.63;;;5.90;99.50;;;;;;5072352;28;20292;-67
2021/03/09 07:48:04;;;;;;;21.30;13.47;;;6.10;99.10;;;;;;5075920;28;20236;-65
2021/03/09 07:50:33;;;;;;;21.33;13.77;;;6.30;98.70;;;;;;5076371;28;20212;-65
2021/03/09 07:53:10;;;;;;;19.27;13.40;;;6.50;98.30;;;;;;5075637;28;20208;-63
2021/03/09 07:55:37;;;;;;;20.37;15.00;;;6.70;97.90;;;;;;5074816;28;20229;-62
2021/03/09 07:58:15;;;;;;;20.60;13.60;;;6.80;97.20;;;;;;5074427;28;20196;-62
2021/03/09 08:00:58;;;;;;;22.67;13.97;;;7.00;97.00;;;;;;5074226;28;20208;-62
2021/03/09 08:03:26;;;;;;;18.70;12.53;;;7.10;96.70;;;;;;5074691;28;20227;-61
2021/03/09 08:05:55;;;;;;;20.40;13.43;;;7.40;96.30;;;;;;5074515;28;20205;-62
2021/03/09 08:08:38;;;;;;;19.05;13.50;;;7.60;96.00;;;;;;5073971;28;20876;-67
2021/03/09 08:11:05;;;;;;;18.73;13.33;;;7.70;95.30;;;;;;5055359;28;20202;-61
2021/03/09 08:13:32;;;;;;;17.97;12.90;;;7.70;95.30;;;;;;5054500;28;20734;-63
2021/03/09 08:16:31;;;;;;;19.30;13.07;;;7.70;95.30;;;;;;5054016;28;20241;-63
2021/03/09 08:19:07;;;;;;;19.63;13.60;;;7.60;95.20;;;;;;5054294;28;20212;-63
2021/03/09 08:21:57;;;;;;;19.43;13.00;;;7.60;95.50;;;;;;5036732;28;20202;-64
2021/03/09 08:24:52;;;;;;;19.20;13.80;;;7.60;95.40;;;;;;5035258;28;20202;-63
2021/03/09 08:27:39;;;;;;;20.00;14.77;;;7.60;95.40;;;;;;5035106;28;20313;-63
2021/03/09 08:30:27;;;;;;;18.17;14.00;;;7.70;95.50;;;;;;5046449;28;20228;-62
2021/03/09 08:32:54;;;;;;;20.70;14.87;;;7.80;95.60;;;;;;5053528;28;20221;-62
2021/03/09 08:35:36;;;;;;;17.53;12.73;;;8.00;95.40;;;;;;5054262;28;20572;-63
2021/03/09 08:38:23;;;;;;;17.87;13.20;;;8.20;94.90;;;;;;5053803;28;20708;-63
2021/03/09 08:41:07;;;;;;;16.63;12.63;;;8.40;94.60;;;;;;5052752;28;20666;-62
2021/03/09 08:43:34;;;;;;;16.63;12.17;;;8.60;94.00;;;;;;5053159;28;20270;-62
2021/03/09 08:46:02;;;;;;;18.47;12.63;;;8.60;93.80;;;;;;5053087;28;20709;-62
2021/03/09 08:48:54;;;;;;;15.07;11.30;;;8.70;93.60;;;;;;5053026;28;20213;-63
2021/03/09 08:51:51;;;;;;;16.40;11.77;;;8.90;93.80;;;;;;5053671;28;20212;-64
2021/03/09 08:54:29;;;;;;;17.03;11.73;;;9.10;93.50;;;;;;5053074;28;20565;-63
2021/03/09 08:56:57;;;;;;;18.20;11.70;;;9.10;93.00;;;;;;5051985;28;20709;-61
2021/03/09 08:59:25;;;;;;;24.97;12.73;;;9.20;93.10;;;;;;5052224;28;20205;-61
2021/03/09 09:01:52;;;;;;;19.30;12.27;;;9.30;93.00;;;;;;5053169;28;20259;-61
2021/03/09 09:04:19;;;;;;;19.77;12.07;;;9.50;92.70;;;;;;5053089;28;20205;-64
2021/03/09 09:06:45;;;;;;;17.80;12.47;;;9.60;92.40;;;;;;5053223;28;20232;-61
2021/03/09 09:09:13;;;;;;;19.60;13.20;;;9.80;92.10;;;;;;5052968;28;20586;-61
2021/03/09 09:11:39;;;;;;;17.57;12.23;;;10.10;91.50;;;;;;5053694;28;20275;-61
2021/03/09 09:14:16;;;;;;;21.60;12.67;;;10.30;91.10;;;;;;5053284;28;20217;-62
2021/03/09 09:16:42;;;;;;;22.53;12.30;;;10.40;90.60;;;;;;5052830;28;20229;-61
2021/03/09 09:19:08;;;;;;;20.77;12.83;;;10.50;90.00;;;;;;5052475;28;20634;-61
2021/03/09 09:21:43;;;;;;;20.30;13.03;;;10.30;90.40;;;;;;5052559;28;20206;-61
2021/03/09 09:24:20;;;;;;;18.03;12.27;;;10.40;90.40;;;;;;5053769;28;20543;-62
2021/03/09 09:26:58;;;;;;;17.80;12.37;;;10.60;89.60;;;;;;5056614;28;20240;-61
2021/03/09 09:29:24;;;;;;;20.70;12.90;;;10.70;89.60;;;;;;5055034;28;20248;-62
2021/03/09 09:31:58;;;;;;;17.97;11.53;;;10.80;89.00;;;;;;5055396;28;20205;-61
2021/03/09 09:34:38;;;;;;;20.17;13.00;;;11.00;88.40;;;;;;5054741;28;20308;-60
2021/03/09 09:37:12;;;;;;;20.47;13.37;;;11.20;88.00;;;;;;5054789;28;20835;-61
2021/03/09 09:39:40;;;;;;;19.57;13.20;;;11.40;87.40;;;;;;5054936;28;20205;-61
2021/03/09 09:42:16;;;;;;;18.50;12.90;;;11.60;86.20;;;;;;5054563;28;20674;-61
2021/03/09 09:44:42;;;;;;;16.60;12.60;;;11.70;85.00;;;;;;5055024;28;20201;-61
2021/03/09 09:47:10;;;;;;;37.50;26.93;;;11.30;85.90;;;;;;5057061;28;20309;-61
2021/03/09 09:49:38;;;;;;;16.60;13.57;;;11.30;86.30;;;;;;5057784;28;20640;-61
2021/03/09 09:52:14;;;;;;;15.70;12.33;;;11.50;85.80;;;;;;5057201;28;20209;-61
2021/03/09 09:54:51;;;;;;;16.33;12.97;;;11.70;84.80;;;;;;5053884;28;20225;-61
2021/03/09 09:57:17;;;;;;;18.77;13.97;;;11.70;84.70;;;;;;5052398;28;20240;-61
2021/03/09 09:59:44;;;;;;;18.93;12.73;;;11.40;85.30;;;;;;5052420;28;20210;-62
2021/03/09 10:02:18;;;;;;;21.37;13.47;;;11.50;86.00;;;;;;5056199;28;20619;-60
2021/03/09 10:04:44;;;;;;;16.63;13.17;;;11.70;85.50;;;;;;5071557;28;20200;-65
2021/03/09 10:07:15;;;;;;;16.57;13.00;;;11.90;84.80;;;;;;5072400;28;20225;-63
2021/03/09 10:09:59;;;;;;;18.53;12.47;;;12.00;84.20;;;;;;5071852;28;20239;-67
2021/03/09 10:12:32;;;;;;;17.23;12.63;;;12.20;82.90;;;;;;5071614;28;20254;-65
2021/03/09 10:14:58;;;;;;;19.27;13.77;;;12.40;82.10;;;;;;5071259;28;20217;-65
2021/03/09 10:17:25;;;;;;;19.80;13.00;;;12.40;81.30;;;;;;5071012;28;20475;-65
2021/03/09 10:19:52;;;;;;;21.03;13.53;;;12.40;81.70;;;;;;5071690;28;20205;-65
2021/03/09 10:22:19;;;;;;;20.13;12.60;;;12.50;81.00;;;;;;5071301;28;20208;-65
2021/03/09 10:24:46;;;;;;;17.40;12.97;;;12.60;80.60;;;;;;5071496;28;20603;-65
2021/03/09 10:27:14;;;;;;;19.90;13.47;;;12.60;80.60;;;;;;5071514;28;20358;-62
2021/03/09 10:29:41;;;;;;;19.27;13.37;;;12.70;80.40;;;;;;5071784;28;20618;-61
2021/03/09 10:32:14;;;;;;;19.10;13.63;;;12.80;80.00;;;;;;5071489;28;20205;-63
2021/03/09 10:34:42;;;;;;;17.80;13.50;;;12.90;79.30;;;;;;5071350;28;20232;-64
2021/03/09 10:37:10;;;;;;;18.93;13.33;;;12.80;79.20;;;;;;5071542;28;20319;-62
2021/03/09 10:39:37;;;;;;;15.90;12.97;;;12.90;79.20;;;;;;5071879;28;20201;-61
2021/03/09 10:42:29;;;;;;;16.80;13.83;;;12.90;77.80;;;;;;5071530;28;20208;-62
2021/03/09 10:44:57;;;;;;;14.70;12.43;;;12.80;77.50;;;;;;5066664;28;20204;-61
2021/03/09 10:47:23;;;;;;;16.67;13.00;;;12.90;77.90;;;;;;5071616;28;20243;-62
2021/03/09 10:49:50;;;;;;;17.23;13.20;;;12.90;78.00;;;;;;5071591;28;20212;-62
2021/03/09 10:52:16;;;;;;;16.33;13.30;;;12.80;78.00;;;;;;5071656;28;20204;-62
2021/03/09 10:54:42;;;;;;;19.07;13.40;;;12.90;77.90;;;;;;5071666;28;20235;-61
2021/03/09 10:57:10;;;;;;;17.60;13.07;;;13.00;77.50;;;;;;5071273;28;20243;-62
2021/03/09 10:59:37;;;;;;;19.70;13.40;;;13.20;76.80;;;;;;5071440;28;20200;-61
2021/03/09 11:02:07;;;;;;;19.20;13.27;;;13.30;75.90;;;;;;5069391;28;20213;-64
2021/03/09 11:04:34;;;;;;;16.10;12.63;;;13.50;75.60;;;;;;5070926;28;20286;-64
2021/03/09 11:07:00;;;;;;;16.07;12.97;;;13.60;74.70;;;;;;5071034;28;20260;-64
2021/03/09 11:09:27;;;;;;;16.47;12.53;;;13.70;74.10;;;;;;5070608;28;20600;-64
2021/03/09 11:11:53;;;;;;;41.70;15.50;;;13.80;73.50;;;;;;5070951;28;20201;-63
2021/03/09 11:14:19;;;;;;;21.27;12.80;;;13.60;74.20;;;;;;5070361;28;20205;-63
2021/03/09 11:16:46;;;;;;;15.40;13.03;;;13.50;74.90;;;;;;5070743;28;20225;-65
2021/03/09 11:19:12;;;;;;;13.87;11.27;;;13.40;74.20;;;;;;5070570;28;20212;-63
2021/03/09 11:21:39;;;;;;;15.30;12.50;;;13.10;75.00;;;;;;5073180;28;20235;-65
2021/03/09 11:24:06;;;;;;;15.60;12.13;;;12.90;75.50;;;;;;5074455;28;20208;-65
2021/03/09 11:26:32;;;;;;;22.20;16.30;;;12.90;75.20;;;;;;5074556;28;20220;-64
2021/03/09 11:28:58;;;;;;;15.27;12.13;;;12.90;75.60;;;;;;5074320;28;20631;-65
2021/03/09 11:31:25;;;;;;;16.60;11.80;;;13.10;75.10;;;;;;5075371;28;20204;-66
2021/03/09 11:33:53;;;;;;;13.00;11.27;;;13.30;73.90;;;;;;5074792;28;20216;-66
2021/03/09 11:36:20;;;;;;;13.97;11.40;;;13.40;72.60;;;;;;5075233;28;20232;-65
2021/03/09 11:38:46;;;;;;;14.37;10.27;;;13.50;71.80;;;;;;5074568;28;20220;-65
2021/03/09 11:41:15;;;;;;;14.20;10.70;;;13.40;71.40;;;;;;5074170;28;20215;-65
2021/03/09 11:43:41;;;;;;;11.70;10.40;;;12.90;73.50;;;;;;5074116;28;20208;-65
2021/03/09 11:46:08;;;;;;;11.50;9.87;;;12.50;74.20;;;;;;5074432;28;20232;-65
2021/03/09 11:48:34;;;;;;;13.37;10.13;;;12.30;74.10;;;;;;5074079;28;20208;-65
2021/03/09 11:51:01;;;;;;;14.13;11.07;;;12.10;74.90;;;;;;5074331;28;20209;-62
2021/03/09 11:53:28;;;;;;;12.53;9.90;;;12.10;75.60;;;;;;5074431;28;20197;-63
2021/03/09 11:55:54;;;;;;;10.63;8.63;;;12.00;75.50;;;;;;5074215;28;20224;-65
2021/03/09 11:58:20;;;;;;;10.90;8.63;;;12.00;73.90;;;;;;5073631;28;20209;-65
2021/03/09 12:00:47;;;;;;;10.63;8.97;;;12.00;73.70;;;;;;5074139;28;20201;-65
2021/03/09 12:03:13;;;;;;;12.63;9.47;;;12.20;73.00;;;;;;5074083;28;20209;-63
2021/03/09 12:05:40;;;;;;;10.90;9.03;;;12.20;72.90;;;;;;5073793;28;20197;-65
2021/03/09 12:08:07;;;;;;;11.10;9.03;;;12.20;72.70;;;;;;5074090;28;20231;-64
2021/03/09 12:10:33;;;;;;;10.20;8.17;;;12.00;72.70;;;;;;5073952;28;20205;-63
2021/03/09 12:12:59;;;;;;;10.17;8.57;;;12.00;72.40;;;;;;5075636;28;20204;-64
2021/03/09 12:15:26;;;;;;;9.20;7.87;;;12.20;71.90;;;;;;5073443;28;20727;-63
2021/03/09 12:17:52;;;;;;;10.30;8.00;;;12.20;71.00;;;;;;5073672;28;20319;-64
2021/03/09 12:20:19;;;;;;;9.93;8.27;;;12.10;71.20;;;;;;5073857;28;20209;-65
2021/03/09 12:22:45;;;;;;;8.87;6.83;;;12.20;70.60;;;;;;5074760;28;20295;-64
2021/03/09 12:25:13;;;;;;;9.57;7.30;;;12.20;68.70;;;;;;5074021;28;20205;-65
2021/03/09 12:27:39;;;;;;;8.00;7.20;;;12.20;68.70;;;;;;5074344;28;20221;-64
2021/03/09 12:30:07;;;;;;;9.13;7.37;;;12.10;67.90;;;;;;5074659;28;20227;-64
2021/03/09 12:32:34;;;;;;;7.87;7.07;;;12.30;68.00;;;;;;5072740;28;20220;-66
2021/03/09 12:35:00;;;;;;;7.90;7.07;;;12.40;67.90;;;;;;5073413;28;20220;-65
2021/03/09 12:37:27;;;;;;;8.70;6.80;;;12.30;67.40;;;;;;5073825;28;20311;-65
2021/03/09 12:39:53;;;;;;;8.17;7.20;;;12.30;67.30;;;;;;5073774;28;20229;-65
2021/03/09 12:42:21;;;;;;;8.00;6.30;;;12.30;66.40;;;;;;5073781;28;20677;-64